Time;durP1;ratioP1;P1;durP2;ratioP2;P2;SDS_P1;SDS_P2;PMS_P1;PMS_P2;Temp;Humidity;BMP_temperature;BMP_pressure;BME280_temperature;BME280_humidity;BME280_pressure;Samples;Min_cycle;Max_cycle;Signal;HPM_P1;HPM_P2
2022/09/01 00:01:31;;;;;;;5.72;4.53;;;;;;;14.05;100.00;99627.77;1695185;82;21033;-54
2022/09/01 00:04:02;;;;;;;9.08;3.92;;;;;;;14.07;100.00;99633.08;1700461;82;21662;-54
2022/09/01 00:06:30;;;;;;;3.98;2.58;;;;;;;14.06;100.00;99633.56;1696617;82;22127;-54
2022/09/01 00:08:59;;;;;;;6.00;2.92;;;;;;;14.04;100.00;99631.43;1699329;82;21082;-54
2022/09/01 00:11:26;;;;;;;4.95;2.75;;;;;;;14.07;100.00;99629.89;1699638;82;21372;-54
2022/09/01 00:13:53;;;;;;;7.17;2.80;;;;;;;14.10;100.00;99631.06;1691582;82;21096;-54
2022/09/01 00:16:20;;;;;;;5.58;3.27;;;;;;;14.13;100.00;99634.91;1693469;82;21045;-54
2022/09/01 00:18:51;;;;;;;5.87;3.75;;;;;;;14.17;100.00;99627.47;1698016;82;21857;-53
2022/09/01 00:21:20;;;;;;;6.72;4.10;;;;;;;14.24;100.00;99630.16;1703042;82;21058;-54
2022/09/01 00:23:46;;;;;;;8.65;4.22;;;;;;;14.30;100.00;99628.39;1696036;82;21175;-54
2022/09/01 00:26:13;;;;;;;8.43;4.35;;;;;;;14.30;100.00;99628.39;1694453;82;21570;-54
2022/09/01 00:28:41;;;;;;;6.00;4.15;;;;;;;14.33;100.00;99630.42;1692687;82;21561;-54
2022/09/01 00:31:09;;;;;;;7.42;3.45;;;;;;;14.35;100.00;99624.43;1699329;82;21141;-54
2022/09/01 00:33:37;;;;;;;7.53;3.98;;;;;;;14.37;100.00;99631.95;1697952;82;21058;-54
2022/09/01 00:36:04;;;;;;;6.08;3.58;;;;;;;14.34;100.00;99633.52;1698326;82;21059;-54
2022/09/01 00:38:31;;;;;;;5.72;3.55;;;;;;;14.34;100.00;99633.52;1703611;82;21229;-54
2022/09/01 00:40:59;;;;;;;8.33;3.67;;;;;;;14.32;100.00;99626.46;1701028;82;21645;-54
2022/09/01 00:43:47;;;;;;;7.75;3.58;;;;;;;14.29;100.00;99634.28;1691669;82;21357;-53
2022/09/01 00:46:19;;;;;;;8.38;3.85;;;;;;;14.27;100.00;99629.97;1696094;82;21046;-54
2022/09/01 00:48:55;;;;;;;3.85;3.05;;;;;;;14.24;100.00;99631.02;1696516;82;21073;-54
2022/09/01 00:51:22;;;;;;;8.60;3.92;;;;;;;14.28;100.00;99633.06;1696403;82;21079;-54
2022/09/01 00:53:48;;;;;;;9.55;4.95;;;;;;;14.30;100.00;99631.97;1698357;82;21057;-54
2022/09/01 00:56:14;;;;;;;10.05;4.33;;;;;;;14.30;100.00;99633.32;1698263;82;22811;-54
2022/09/01 00:58:41;;;;;;;6.22;3.98;;;;;;;14.30;100.00;99634.67;1706764;81;21055;-54
2022/09/01 01:01:08;;;;;;;7.83;3.87;;;;;;;14.33;100.00;99634.97;1692009;82;21097;-51
2022/09/01 01:03:35;;;;;;;6.25;3.75;;;;;;;14.33;100.00;99637.67;1698259;82;21050;-52
2022/09/01 01:06:07;;;;;;;8.23;3.80;;;;;;;14.31;100.00;99639.12;1697196;83;21533;-51
2022/09/01 01:08:37;;;;;;;5.90;3.33;;;;;;;14.29;100.00;99632.09;1694921;82;21799;-51
2022/09/01 01:11:17;;;;;;;7.03;2.92;;;;;;;14.22;100.00;99634.30;1691860;82;21030;-52
2022/09/01 01:13:59;;;;;;;6.42;2.80;;;;;;;14.20;100.00;99637.63;1697545;82;21047;-52
2022/09/01 01:16:27;;;;;;;6.22;2.98;;;;;;;14.20;100.00;99640.81;1691119;82;21123;-52
2022/09/01 01:18:54;;;;;;;5.53;3.55;;;;;;;14.19;100.00;99644.48;1697325;82;21080;-52
2022/09/01 01:24:33;;;;;;;7.95;3.00;;;;;;;14.19;100.00;99641.78;1691484;82;21063;-51
2022/09/01 01:27:00;;;;;;;6.37;3.12;;;;;;;14.19;100.00;99635.87;1695418;82;21094;-52
2022/09/01 01:29:31;;;;;;;9.78;3.20;;;;;;;14.20;100.00;99638.98;1697939;82;21721;-51
2022/09/01 01:31:59;;;;;;;7.28;3.22;;;;;;;14.17;100.00;99631.05;1697745;82;21619;-52
2022/09/01 01:34:25;;;;;;;7.53;3.87;;;;;;;14.09;100.00;99633.38;1698204;81;21595;-52
2022/09/01 01:37:00;;;;;;;5.00;3.80;;;;;;;14.02;100.00;99623.92;1713785;81;21022;-51
2022/09/01 01:39:26;;;;;;;4.20;3.75;;;;;;;14.02;100.00;99623.92;1711316;81;21065;-51
2022/09/01 01:41:56;;;;;;;4.37;2.85;;;;;;;14.01;100.00;99635.70;1711234;81;21081;-51
2022/09/01 01:44:27;;;;;;;5.83;2.83;;;;;;;13.96;100.00;99633.28;1714027;81;21064;-52
2022/09/01 01:46:54;;;;;;;2.87;1.90;;;;;;;13.94;100.00;99632.53;1716740;81;21100;-52
2022/09/01 01:49:24;;;;;;;5.05;2.45;;;;;;;13.92;100.00;99634.45;1715375;81;21069;-52
2022/09/01 01:51:55;;;;;;;2.70;1.72;;;;;;;13.84;100.00;99628.67;1687163;81;21057;-53
2022/09/01 01:54:22;;;;;;;3.22;2.58;;;;;;;13.84;100.00;99628.67;1710482;81;21136;-54
2022/09/01 01:56:48;;;;;;;5.60;1.92;;;;;;;13.84;100.00;99626.44;1717288;81;21089;-54
2022/09/01 01:59:15;;;;;;;5.62;2.72;;;;;;;13.70;100.00;99627.30;1720481;81;21098;-53
2022/09/01 02:01:48;;;;;;;2.87;2.12;;;;;;;13.70;100.00;99627.30;1712846;81;21127;-54
2022/09/01 02:04:14;;;;;;;5.83;2.30;;;;;;;13.59;100.00;99624.42;1714735;81;21110;-54
2022/09/01 02:06:44;;;;;;;6.33;2.77;;;;;;;13.46;100.00;99630.19;1713950;81;21420;-54
2022/09/01 02:09:09;;;;;;;4.90;1.80;;;;;;;13.37;100.00;99623.51;1716817;81;21085;-54
2022/09/01 02:11:38;;;;;;;4.53;2.42;;;;;;;13.30;100.00;99620.80;1712047;81;21143;-54
2022/09/01 02:14:07;;;;;;;4.22;1.92;;;;;;;13.30;100.00;99620.80;1720086;81;20922;-54
2022/09/01 02:16:35;;;;;;;3.37;1.92;;;;;;;13.28;100.00;99620.02;1686115;82;20946;-54
2022/09/01 02:19:04;;;;;;;4.00;2.05;;;;;;;13.28;100.00;99620.02;1718754;81;20978;-53
2022/09/01 02:21:31;;;;;;;3.98;1.95;;;;;;;13.26;100.00;99621.97;1718589;81;20912;-54
2022/09/01 02:24:00;;;;;;;4.95;1.50;;;;;;;13.24;100.00;99618.48;1719894;81;21132;-54
2022/09/01 02:26:33;;;;;;;2.47;1.40;;;;;;;13.21;100.00;99624.94;1715966;81;20923;-54
2022/09/01 02:29:03;;;;;;;7.90;1.40;;;;;;;13.15;100.00;99622.62;1716966;81;20914;-53
2022/09/01 02:31:40;;;;;;;3.72;1.92;;;;;;;13.12;100.00;99625.94;1672470;81;21423;-53
2022/09/01 02:34:09;;;;;;;5.85;1.60;;;;;;;12.98;100.00;99624.56;1715958;81;20893;-53
2022/09/01 02:36:46;;;;;;;2.95;1.37;;;;;;;12.88;100.00;99624.23;1721244;81;21123;-54
2022/09/01 02:39:05;;;;;;;3.40;1.95;;;;;;;12.81;100.00;99627.79;1713356;81;21465;-54
2022/09/01 02:41:33;;;;;;;3.02;1.22;;;;;;;12.71;100.00;99621.19;1716225;81;21502;-53
2022/09/01 02:44:01;;;;;;;2.58;2.30;;;;;;;12.62;100.00;99622.20;1719069;81;21065;-53
2022/09/01 02:46:28;;;;;;;2.37;1.17;;;;;;;12.56;100.00;99623.92;1726065;81;20974;-54
2022/09/01 02:48:56;;;;;;;2.75;1.40;;;;;;;12.54;100.00;99625.36;1719462;81;21045;-53
2022/09/01 02:51:24;;;;;;;6.75;2.05;;;;;;;12.54;100.00;99629.88;1720373;81;21141;-53
2022/09/01 02:53:51;;;;;;;3.52;1.65;;;;;;;12.53;100.00;99633.53;1719982;81;21402;-53
2022/09/01 02:56:22;;;;;;;4.55;1.85;;;;;;;12.46;100.00;99633.03;1718430;81;21092;-54
2022/09/01 02:58:49;;;;;;;3.67;1.70;;;;;;;12.40;100.00;99634.73;1721065;81;21418;-54
2022/09/01 03:01:23;;;;;;;5.95;1.65;;;;;;;12.31;100.00;99632.56;1719067;81;20946;-54
2022/09/01 03:03:49;;;;;;;5.30;1.75;;;;;;;12.25;100.00;99632.41;1721095;81;21069;-54
2022/09/01 03:06:18;;;;;;;3.90;1.40;;;;;;;12.23;100.00;99635.70;1724709;81;22367;-54
2022/09/01 03:08:46;;;;;;;3.75;1.70;;;;;;;12.21;100.00;99644.36;1719594;81;21057;-53
2022/09/01 03:11:13;;;;;;;3.08;1.40;;;;;;;12.18;100.00;99644.52;1722917;81;21829;-54
2022/09/01 03:13:41;;;;;;;4.83;1.90;;;;;;;12.16;100.00;99643.77;1717143;81;21101;-54
2022/09/01 03:16:08;;;;;;;2.33;1.30;;;;;;;12.17;100.00;99647.30;1717872;81;21080;-54
2022/09/01 03:18:34;;;;;;;4.10;1.57;;;;;;;12.18;100.00;99654.44;1717673;81;22497;-54
2022/09/01 03:21:01;;;;;;;3.20;1.80;;;;;;;12.20;100.00;99652.53;1720757;81;21062;-53
2022/09/01 03:23:30;;;;;;;5.50;1.62;;;;;;;12.22;100.00;99658.25;1720035;81;21121;-54
2022/09/01 03:25:56;;;;;;;4.95;1.75;;;;;;;12.15;100.00;99660.91;1720996;81;21882;-53
2022/09/01 03:28:23;;;;;;;4.87;1.95;;;;;;;12.03;100.00;99662.92;1717494;81;21125;-54
2022/09/01 03:30:51;;;;;;;4.45;1.67;;;;;;;11.96;100.00;99661.05;1712315;81;21148;-54
2022/09/01 03:33:19;;;;;;;8.13;2.05;;;;;;;11.91;100.00;99657.72;1715458;81;21136;-54
2022/09/01 03:35:46;;;;;;;4.67;1.55;;;;;;;11.87;100.00;99664.25;1716105;81;21098;-54
2022/09/01 03:38:20;;;;;;;3.05;1.45;;;;;;;11.82;100.00;99656.91;1718946;81;21131;-54
2022/09/01 03:40:43;;;;;;;2.05;1.45;;;;;;;11.82;100.00;99658.25;1708090;81;21116;-54
2022/09/01 03:43:12;;;;;;;3.02;1.60;;;;;;;11.78;100.00;99664.75;1713674;81;21098;-54
2022/09/01 03:45:40;;;;;;;3.87;1.92;;;;;;;11.75;100.00;99662.21;1716880;81;21551;-54
2022/09/01 03:49:29;;;;;;;3.70;1.63;;;;;;;11.79;100.00;99665.63;1783267;78;22481;-53
2022/09/01 03:51:57;;;;;;;3.52;2.20;;;;;;;11.72;100.00;99679.89;1746984;80;21059;-54
2022/09/01 03:54:24;;;;;;;4.87;2.25;;;;;;;11.71;100.00;99674.10;1712677;81;21514;-54
2022/09/01 03:56:51;;;;;;;4.35;2.37;;;;;;;11.77;100.00;99668.40;1723450;81;20949;-54
2022/09/01 03:59:18;;;;;;;9.88;5.40;;;;;;;11.83;100.00;99669.41;1688016;83;21382;-53
2022/09/01 04:01:45;;;;;;;7.42;3.40;;;;;;;11.91;100.00;99672.55;1678120;83;21089;-53
2022/09/01 04:04:12;;;;;;;7.55;3.25;;;;;;;12.02;100.00;99674.66;1677163;83;21403;-54
2022/09/01 04:06:40;;;;;;;9.45;4.35;;;;;;;12.11;100.00;99678.20;1678778;83;22364;-54
2022/09/01 04:09:07;;;;;;;15.68;7.12;;;;;;;12.19;100.00;99675.08;1672127;83;20994;-54
2022/09/01 04:11:36;;;;;;;12.40;6.28;;;;;;;12.29;100.00;99681.70;1674294;83;21069;-54
2022/09/01 04:14:03;;;;;;;10.25;6.08;;;;;;;12.38;100.00;99678.48;1661483;84;21096;-54
2022/09/01 04:19:24;;;;;;;12.45;5.50;;;;;;;12.69;100.00;99685.69;1697160;82;21063;-54
2022/09/01 04:21:58;;;;;;;10.93;5.37;;;;;;;12.86;100.00;99691.86;1687149;82;21088;-54
2022/09/01 04:24:27;;;;;;;11.25;4.72;;;;;;;13.01;100.00;99697.34;1665872;82;21093;-54
2022/09/01 04:26:55;;;;;;;10.80;4.45;;;;;;;13.15;100.00;99688.83;1687814;82;21041;-54
2022/09/01 04:29:28;;;;;;;11.97;5.42;;;;;;;13.28;100.00;99690.78;1685730;82;21399;-54
2022/09/01 04:32:00;;;;;;;;;;;;;;;13.36;100.00;99692.53;1688342;82;21144;-54
2022/09/01 04:34:26;;;;;;;9.38;5.20;;;;;;;13.42;100.00;99692.19;1688308;82;20211;-54
2022/09/01 04:36:54;;;;;;;12.23;4.90;;;;;;;13.49;100.00;99689.49;1693108;82;21077;-54
2022/09/01 04:39:22;;;;;;;6.67;4.67;;;;;;;13.57;100.00;99699.36;1683633;82;21072;-54
2022/09/01 04:41:49;;;;;;;7.28;3.87;;;;;;;13.75;100.00;99696.00;1695701;82;21069;-55
2022/09/01 04:44:17;;;;;;;7.05;4.22;;;;;;;14.21;100.00;99682.65;1695414;82;21524;-54
2022/09/01 04:46:49;;;;;;;8.28;3.98;;;;;;;14.42;100.00;99686.34;1691293;82;21453;-54
2022/09/01 04:49:18;;;;;;;6.62;4.20;;;;;;;14.42;100.00;99686.34;1680440;82;21093;-52
2022/09/01 04:51:46;;;;;;;11.15;4.62;;;;;;;14.57;100.00;99686.69;1679118;83;21141;-51
2022/09/01 04:54:13;;;;;;;12.40;4.87;;;;;;;14.64;100.00;99686.17;1676021;83;21081;-53
2022/09/01 04:56:43;;;;;;;6.75;3.45;;;;;;;14.66;100.00;99690.14;1679524;83;21488;-53
2022/09/01 04:59:12;;;;;;;11.43;4.47;;;;;;;14.66;100.00;99692.38;1689009;83;21017;-53
2022/09/01 05:01:42;;;;;;;6.75;4.20;;;;;;;14.71;100.00;99692.95;1680255;83;21492;-52
2022/09/01 05:04:13;;;;;;;6.87;3.58;;;;;;;14.75;100.00;99689.05;1681798;83;20979;-52
2022/09/01 05:06:43;;;;;;;7.78;3.72;;;;;;;14.82;100.00;99693.58;1689621;82;21268;-52
2022/09/01 05:09:11;;;;;;;6.00;3.70;;;;;;;14.85;100.00;99687.96;1659098;83;21172;-52
2022/09/01 05:11:45;;;;;;;5.33;3.17;;;;;;;14.90;100.00;99693.93;1726985;80;21512;-53
2022/09/01 05:14:21;;;;;;;5.62;2.83;;;;;;;14.97;100.00;99695.77;1727970;80;20954;-52
2022/09/01 05:16:49;;;;;;;4.12;3.17;;;;;;;14.99;100.00;99685.67;1729794;80;20955;-52
2022/09/01 05:19:19;;;;;;;6.83;3.47;;;;;;;15.00;100.00;99688.28;1729614;80;20911;-51
2022/09/01 05:21:46;;;;;;;5.15;3.12;;;;;;;14.97;100.00;99687.64;1723824;80;21107;-52
2022/09/01 05:24:16;;;;;;;5.78;3.33;;;;;;;14.92;100.00;99691.13;1722473;80;20923;-51
2022/09/01 05:26:45;;;;;;;3.58;2.65;;;;;;;14.91;100.00;99690.73;1721463;80;20966;-52
2022/09/01 05:29:12;;;;;;;6.03;2.90;;;;;;;14.93;100.00;99686.09;1724591;80;20947;-52
2022/09/01 05:31:40;;;;;;;2.98;2.45;;;;;;;14.94;100.00;99687.83;1726372;80;21452;-53
2022/09/01 05:34:08;;;;;;;2.80;2.35;;;;;;;14.94;100.00;99687.34;1728686;82;21303;-53
2022/09/01 05:36:36;;;;;;;4.47;1.95;;;;;;;14.95;100.00;99686.86;1732807;80;20946;-52
2022/09/01 05:39:05;;;;;;;3.77;1.85;;;;;;;14.98;100.00;99687.99;1728410;80;20923;-50
2022/09/01 05:41:34;;;;;;;2.30;1.75;;;;;;;15.06;100.00;99687.86;1726680;80;20962;-51
2022/09/01 05:44:03;;;;;;;3.67;1.90;;;;;;;15.14;100.00;99691.44;1733092;80;21006;-51
2022/09/01 05:46:30;;;;;;;4.42;2.30;;;;;;;15.20;100.00;99691.50;1722840;80;21116;-50
2022/09/01 05:48:56;;;;;;;3.60;1.95;;;;;;;15.24;100.00;99690.30;1717842;80;21198;-50
2022/09/01 05:51:26;;;;;;;4.70;1.80;;;;;;;15.27;100.00;99694.16;1658088;84;21116;-50
2022/09/01 05:53:57;;;;;;;4.08;1.52;;;;;;;15.29;100.00;99681.37;1672018;83;21065;-51
2022/09/01 05:56:22;;;;;;;6.70;1.72;;;;;;;15.33;100.00;99684.24;1669765;83;21160;-52
2022/09/01 05:58:49;;;;;;;4.87;2.20;;;;;;;15.38;100.00;99676.68;1675502;83;21617;-50
2022/09/01 06:01:25;;;;;;;5.25;2.27;;;;;;;15.39;100.00;99682.48;1669993;83;21145;-51
2022/09/01 06:03:54;;;;;;;5.50;2.50;;;;;;;15.40;100.00;99675.58;1646207;84;21113;-52
2022/09/01 06:06:26;;;;;;;4.37;1.90;;;;;;;15.47;100.00;99677.41;1675310;83;21105;-51
2022/09/01 06:08:57;;;;;;;3.58;2.12;;;;;;;15.58;100.00;99669.88;1680182;83;21030;-53
2022/09/01 06:11:23;;;;;;;6.25;2.10;;;;;;;15.67;100.00;99675.53;1672711;83;21255;-50
2022/09/01 06:13:51;;;;;;;3.58;2.05;;;;;;;15.77;100.00;99674.41;1644862;84;21106;-52
2022/09/01 06:16:18;;;;;;;6.15;1.40;;;;;;;15.84;100.00;99669.78;1673777;83;21073;-51
2022/09/01 06:18:45;;;;;;;3.50;1.20;;;;;;;15.91;100.00;99671.56;1676112;83;21074;-51
2022/09/01 06:21:13;;;;;;;4.08;1.17;;;;;;;15.99;100.00;99671.05;1673328;83;21113;-51
2022/09/01 06:23:42;;;;;;;2.52;1.00;;;;;;;16.03;100.00;99671.19;1677115;83;21835;-51
2022/09/01 06:26:29;;;;;;;3.45;1.10;;;;;;;16.04;100.00;99677.00;1675161;83;21058;-50
2022/09/01 06:29:04;;;;;;;4.28;1.47;;;;;;;16.00;100.00;99676.83;1672287;83;21073;-50
2022/09/01 06:31:33;;;;;;;4.05;1.50;;;;;;;15.99;100.00;99677.83;1677090;83;21535;-51
2022/09/01 06:34:02;;;;;;;1.92;1.30;;;;;;;16.02;100.00;99681.66;1714996;81;21094;-52
2022/09/01 06:36:31;;;;;;;3.40;1.90;;;;;;;16.05;100.00;99677.38;1696893;81;21141;-51
2022/09/01 06:39:00;;;;;;;2.65;1.45;;;;;;;16.14;100.00;99680.80;1720631;81;21097;-50
2022/09/01 06:41:27;;;;;;;3.08;1.05;;;;;;;16.23;100.00;99680.13;1715477;81;21050;-50
2022/09/01 06:43:54;;;;;;;5.72;2.02;;;;;;;16.31;100.00;99677.73;1716810;81;21051;-50
2022/09/01 06:46:22;;;;;;;5.40;1.50;;;;;;;16.38;100.00;99671.34;1712558;81;21081;-49
2022/09/01 06:48:49;;;;;;;3.15;1.10;;;;;;;16.43;100.00;99677.30;1705787;81;21538;-49
2022/09/01 06:51:19;;;;;;;4.12;0.78;;;;;;;16.46;100.00;99682.03;1711786;81;21054;-52
2022/09/01 06:53:49;;;;;;;2.42;1.22;;;;;;;16.52;100.00;99686.13;1709873;81;21121;-50
2022/09/01 06:56:17;;;;;;;3.02;0.90;;;;;;;16.58;100.00;99687.94;1710552;81;21110;-50
2022/09/01 06:58:47;;;;;;;2.02;1.00;;;;;;;16.68;100.00;99695.41;1694438;81;21098;-53
2022/09/01 07:01:16;;;;;;;5.25;0.98;;;;;;;16.73;100.00;99685.08;1712337;81;21770;-51
2022/09/01 07:03:43;;;;;;;3.42;0.90;;;;;;;16.80;100.00;99688.59;1725317;81;21555;-50
2022/09/01 07:06:13;;;;;;;4.03;1.10;;;;;;;16.87;100.00;99692.58;1711268;81;21034;-50
2022/09/01 07:09:00;;;;;;;7.45;3.72;;;;;;;16.91;100.00;99690.50;1715148;81;21072;-51
2022/09/01 07:11:31;;;;;;;3.10;2.25;;;;;;;16.90;100.00;99694.20;1711294;81;21031;-51
2022/09/01 07:14:02;;;;;;;5.03;3.02;;;;;;;16.87;100.00;99695.78;1712223;81;21121;-52
2022/09/01 07:16:39;;;;;;;6.78;3.05;;;;;;;16.85;100.00;99696.37;1709656;81;21113;-52
2022/09/01 07:19:01;;;;;;;4.28;1.55;;;;;;;16.87;100.00;99697.14;1708772;81;21014;-52
2022/09/01 07:21:30;;;;;;;5.37;1.65;;;;;;;16.92;100.00;99690.39;1711699;81;21043;-51
2022/09/01 07:24:00;;;;;;;5.37;1.50;;;;;;;17.01;100.00;99696.99;1718063;81;20917;-52
2022/09/01 07:26:27;;;;;;;5.83;1.82;;;;;;;17.13;100.00;99696.05;1714275;81;21042;-51
2022/09/01 07:28:55;;;;;;;6.28;3.67;;;;;;;17.29;100.00;99699.81;1718605;81;21039;-53
2022/09/01 07:31:30;;;;;;;8.75;3.30;;;;;;;17.45;100.00;99695.42;1669337;82;21098;-51
2022/09/01 07:33:59;;;;;;;3.75;2.47;;;;;;;17.57;100.00;99689.03;1717685;81;21073;-50
2022/09/01 07:36:26;;;;;;;5.00;1.70;;;;;;;17.66;100.00;99697.88;1719340;81;21086;-51
2022/09/01 07:38:53;;;;;;;3.05;1.60;;;;;;;17.72;100.00;99691.95;1717891;81;21874;-52
2022/09/01 07:41:23;;;;;;;2.75;2.33;;;;;;;17.74;100.00;99693.57;1712363;81;21540;-51
2022/09/01 07:44:12;;;;;;;8.05;2.60;;;;;;;17.76;100.00;99690.24;1710596;81;21461;-53
2022/09/01 07:46:55;;;;;;;8.70;3.05;;;;;;;17.80;100.00;99688.13;1707925;81;21717;-53
2022/09/01 07:49:22;;;;;;;4.42;2.70;;;;;;;17.85;100.00;99691.86;1713570;80;21116;-51
2022/09/01 07:51:50;;;;;;;6.30;2.83;;;;;;;17.87;100.00;99693.45;1727299;80;21884;-52
2022/09/01 07:54:18;;;;;;;7.92;4.08;;;;;;;17.92;100.00;99685.81;1728203;80;21606;-51
2022/09/01 07:56:45;;;;;;;8.65;5.15;;;;;;;17.96;100.00;99685.92;1722544;80;21049;-52
2022/09/01 07:59:13;;;;;;;8.58;7.60;;;;;;;18.00;100.00;99687.42;1723090;80;21038;-49
2022/09/01 08:01:41;;;;;;;7.80;4.05;;;;;;;18.04;100.00;99687.53;1724662;80;21033;-52
2022/09/01 08:04:08;;;;;;;12.20;5.80;;;;;;;18.06;100.00;99684.69;1728822;80;22477;-50
2022/09/01 08:06:35;;;;;;;13.20;8.40;;;;;;;18.06;100.00;99688.28;1728010;80;21052;-51
2022/09/01 08:09:04;;;;;;;15.68;10.98;;;;;;;18.05;100.00;99683.83;1729300;80;20994;-51
2022/09/01 08:11:32;;;;;;;12.15;9.20;;;;;;;18.04;100.00;99682.58;1733037;80;20918;-51
2022/09/01 08:13:59;;;;;;;18.17;11.35;;;;;;;18.03;100.00;99677.62;1732870;80;20990;-51
2022/09/01 08:16:27;;;;;;;20.62;12.53;;;;;;;18.07;100.00;99679.13;1699953;82;21067;-51
2022/09/01 08:18:56;;;;;;;28.25;14.80;;;;;;;18.11;100.00;99686.58;1709114;80;20976;-51
2022/09/01 08:21:29;;;;;;;;;;;;;;;18.10;100.00;99687.56;1728816;80;20889;-52
2022/09/01 08:24:02;;;;;;;17.45;10.75;;;;;;;18.08;100.00;99683.59;1730428;80;20120;-50
2022/09/01 08:26:29;;;;;;;14.20;8.43;;;;;;;18.09;100.00;99682.60;1731574;80;20986;-51
2022/09/01 08:28:56;;;;;;;10.98;6.70;;;;;;;18.10;100.00;99682.11;1733810;80;22048;-51
2022/09/01 08:31:27;;;;;;;14.38;9.83;;;;;;;18.12;100.00;99680.97;1731323;80;21373;-52
2022/09/01 08:33:54;;;;;;;26.65;20.00;;;;;;;18.14;100.00;99680.36;1730376;80;20895;-51
2022/09/01 08:36:20;;;;;;;12.58;8.63;;;;;;;18.19;100.00;99681.86;1727456;80;20987;-50
2022/09/01 08:38:47;;;;;;;7.15;4.42;;;;;;;18.25;100.00;99682.72;1729171;80;22472;-51
2022/09/01 08:41:33;;;;;;;3.08;0.82;;;;;;;18.30;100.00;99687.30;1731676;80;21140;-53
2022/09/01 08:44:18;;;;;;;5.67;2.90;;;;;;;18.29;100.00;99676.89;1700579;82;21125;-50
2022/09/01 08:46:44;;;;;;;1.82;1.00;;;;;;;18.31;100.00;99683.58;1733130;80;21002;-53
2022/09/01 08:49:21;;;;;;;5.62;3.52;;;;;;;18.32;100.00;99671.69;1726478;80;21089;-51
2022/09/01 08:52:40;;;;;;;5.25;2.92;;;;;;;18.33;100.00;99671.58;1711434;81;21324;-52
2022/09/01 08:55:40;;;;;;;3.02;1.10;;;;;;;18.31;100.00;99676.77;1711765;81;21146;-51
2022/09/01 08:58:09;;;;;;;3.02;1.52;;;;;;;18.31;100.00;99667.23;1713037;81;21027;-49
2022/09/01 09:00:47;;;;;;;3.08;2.52;;;;;;;18.31;100.00;99659.92;1715901;81;21888;-51
2022/09/01 09:03:37;;;;;;;17.52;12.33;;;;;;;18.35;100.00;99669.60;1708837;81;21746;-50
2022/09/01 09:06:24;;;;;;;32.17;20.27;;;;;;;18.39;100.00;99664.75;1713488;81;21028;-50
2022/09/01 09:09:06;;;;;;;20.10;13.98;;;;;;;18.40;100.00;99663.76;1721961;81;21133;-51
2022/09/01 09:11:57;;;;;;;20.92;13.85;;;;;;;18.39;100.00;99662.02;1715862;81;21042;-50
2022/09/01 09:14:43;;;;;;;20.27;13.93;;;;;;;18.42;100.00;99664.02;1708307;81;21132;-53
2022/09/01 09:17:09;;;;;;;12.65;9.45;;;;;;;18.45;100.00;99664.27;1718592;81;21659;-52
2022/09/01 09:19:39;;;;;;;14.40;9.55;;;;;;;18.52;100.00;99662.77;1713695;81;21030;-51
2022/09/01 09:22:09;;;;;;;15.65;10.45;;;;;;;18.62;100.00;99665.64;1712709;81;21185;-50
2022/09/01 09:25:00;;;;;;;19.35;13.85;;;;;;;18.75;100.00;99663.12;1713784;81;21368;-51
2022/09/01 09:27:30;;;;;;;23.95;16.27;;;;;;;18.94;100.00;99656.99;1710070;81;21035;-51
2022/09/01 09:30:00;;;;;;;23.25;13.60;;;;;;;18.97;100.00;99661.34;1716365;81;21054;-50
2022/09/01 09:33:02;;;;;;;20.17;14.60;;;;;;;19.00;100.00;99652.38;1712335;81;21098;-51
2022/09/01 09:35:35;;;;;;;23.38;13.78;;;;;;;19.06;100.00;99655.94;1709024;81;21123;-52
2022/09/01 09:38:21;;;;;;;16.20;10.08;;;;;;;19.14;100.00;99654.79;1714767;81;20988;-51
2022/09/01 09:41:07;;;;;;;12.65;7.67;;;;;;;19.18;100.00;99656.28;1711537;81;21077;-49
2022/09/01 09:43:39;;;;;;;7.22;3.90;;;;;;;19.20;100.00;99654.79;1711087;81;20995;-51
2022/09/01 09:46:23;;;;;;;6.33;3.75;;;;;;;19.18;100.00;99656.77;1710886;81;20987;-50
2022/09/01 09:49:11;;;;;;;3.90;2.70;;;;;;;19.16;100.00;99656.03;1696806;81;22816;-53
2022/09/01 09:51:39;;;;;;;4.87;2.83;;;;;;;19.14;100.00;99655.31;1710399;80;21086;-53
2022/09/01 09:54:24;;;;;;;4.55;2.25;;;;;;;19.07;100.00;99659.53;1734359;80;21639;-52
2022/09/01 09:57:15;;;;;;;2.85;2.52;;;;;;;19.03;100.00;99654.86;1725046;80;21050;-52
2022/09/01 09:59:54;;;;;;;4.15;1.90;;;;;;;19.05;100.00;99655.59;1728446;80;21101;-52
2022/09/01 10:02:39;;;;;;;2.70;0.90;;;;;;;19.09;100.00;99649.37;1725884;80;21480;-51
2022/09/01 10:05:28;;;;;;;2.30;0.90;;;;;;;19.06;100.00;99651.84;1733111;80;21077;-52
2022/09/01 10:07:55;;;;;;;1.77;0.70;;;;;;;19.01;100.00;99659.56;1724998;80;21029;-51
2022/09/01 10:10:43;;;;;;;5.05;0.70;;;;;;;18.96;100.00;99664.56;1726733;80;21036;-51
2022/09/01 10:13:18;;;;;;;3.22;0.78;;;;;;;18.94;100.00;99652.91;1728026;80;21076;-51
2022/09/01 10:15:54;;;;;;;2.02;0.60;;;;;;;18.93;100.00;99655.26;1727400;80;21105;-51
2022/09/01 10:18:24;;;;;;;0.78;0.47;;;;;;;18.88;100.00;99655.63;1726393;80;21093;-50
2022/09/01 10:21:00;;;;;;;2.27;0.60;;;;;;;18.80;100.00;99658.13;1734049;80;21065;-52
2022/09/01 10:23:31;;;;;;;2.75;0.40;;;;;;;18.77;100.00;99662.50;1728227;80;21026;-51
2022/09/01 10:26:15;;;;;;;1.05;0.30;;;;;;;18.80;100.00;99664.08;1726700;80;21120;-51
2022/09/01 10:28:58;;;;;;;;;;;;;;;18.83;100.00;99659.25;1713563;80;22093;-52
2022/09/01 10:31:25;;;;;;;0.65;0.30;;;;;;;18.93;100.00;99659.84;1728224;80;20208;-53
2022/09/01 10:33:51;;;;;;;1.62;0.40;;;;;;;19.05;100.00;99649.28;1724435;80;21575;-49
2022/09/01 10:36:18;;;;;;;0.40;0.30;;;;;;;19.17;100.00;99639.53;1728495;80;21069;-52
2022/09/01 10:38:44;;;;;;;0.60;0.30;;;;;;;19.32;100.00;99642.80;1727519;80;21068;-54
2022/09/01 10:41:33;;;;;;;0.60;0.40;;;;;;;19.44;100.00;99638.16;1669956;83;21278;-53
2022/09/01 10:44:19;;;;;;;1.37;0.40;;;;;;;19.50;100.00;99637.16;1729336;80;21483;-52
2022/09/01 10:46:46;;;;;;;0.95;0.30;;;;;;;19.58;100.00;99639.22;1727202;80;21190;-53
2022/09/01 10:49:29;;;;;;;0.50;0.23;;;;;;;19.57;100.00;99652.00;1725486;80;21669;-51
2022/09/01 10:51:57;;;;;;;1.77;0.30;;;;;;;19.57;100.00;99642.45;1698453;82;21350;-51
2022/09/01 10:54:44;;;;;;;0.25;0.20;;;;;;;19.53;100.00;99643.73;1727145;80;21105;-51
2022/09/01 10:57:31;;;;;;;0.40;0.28;;;;;;;19.55;100.00;99644.97;1720764;80;21081;-52
2022/09/01 11:00:29;;;;;;;1.05;0.20;;;;;;;19.62;100.00;99627.91;1724559;80;21539;-51
2022/09/01 11:03:17;;;;;;;0.28;0.20;;;;;;;19.73;100.00;99635.17;1731920;80;21416;-52
2022/09/01 11:05:57;;;;;;;0.30;0.10;;;;;;;19.80;100.00;99628.66;1725335;80;20962;-52
2022/09/01 11:08:30;;;;;;;0.23;0.20;;;;;;;19.88;100.00;99628.84;1724565;80;21429;-50
2022/09/01 11:11:23;;;;;;;0.57;0.28;;;;;;;19.96;100.00;99625.80;1729453;80;20904;-51
2022/09/01 11:13:54;;;;;;;0.30;0.25;;;;;;;20.03;100.00;99619.28;1726128;80;20930;-51
2022/09/01 11:16:38;;;;;;;0.37;0.30;;;;;;;20.08;100.00;99631.16;1725483;80;20950;-50
2022/09/01 11:19:38;;;;;;;0.40;0.25;;;;;;;20.07;100.00;99619.39;1733738;80;20942;-50
2022/09/01 11:22:22;;;;;;;1.05;0.20;;;;;;;20.00;100.00;99614.95;1724553;80;21158;-53
2022/09/01 11:24:52;;;;;;;0.28;0.20;;;;;;;19.93;100.00;99619.73;1724889;80;20971;-49
2022/09/01 11:27:53;;;;;;;2.83;0.20;;;;;;;19.91;100.00;99620.36;1724311;80;20915;-52
2022/09/01 11:30:23;;;;;;;0.95;0.20;;;;;;;19.93;100.00;99625.19;1723690;80;20966;-50
2022/09/01 11:32:54;;;;;;;0.42;0.30;;;;;;;19.95;100.00;99613.14;1727409;80;21409;-51
2022/09/01 11:35:21;;;;;;;0.20;0.15;;;;;;;19.95;100.00;99609.54;1728411;80;21090;-51
2022/09/01 11:37:53;;;;;;;0.30;0.20;;;;;;;19.98;100.00;99610.15;1734518;80;21113;-50
2022/09/01 11:40:26;;;;;;;0.30;0.20;;;;;;;20.04;100.00;99608.72;1729621;80;21538;-51
2022/09/01 11:42:53;;;;;;;0.55;0.20;;;;;;;20.07;100.00;99608.45;1722449;80;21058;-49
2022/09/01 11:45:27;;;;;;;0.40;0.23;;;;;;;20.06;100.00;99610.83;1739506;80;21382;-49
2022/09/01 11:48:10;;;;;;;0.30;0.20;;;;;;;20.03;100.00;99613.81;1717909;82;21925;-52
2022/09/01 11:50:40;;;;;;;0.20;0.10;;;;;;;19.98;100.00;99606.05;1727803;80;21083;-50
2022/09/01 11:53:10;;;;;;;0.55;0.20;;;;;;;19.97;100.00;99597.48;1728940;80;21042;-50